createdAt,value
2023-11-25T00:00:47.478Z,0.97
2023-11-25T00:03:14.631Z,0.90
2023-11-25T00:05:41.750Z,0.70
2023-11-25T00:08:08.543Z,0.40
2023-11-25T00:10:35.565Z,0.60
2023-11-25T00:13:02.622Z,0.67
2023-11-25T00:15:29.472Z,0.97
2023-11-25T00:17:56.716Z,0.80
2023-11-25T00:20:24.625Z,1.30
2023-11-25T00:22:51.047Z,0.93
2023-11-25T00:25:19.664Z,0.97
2023-11-25T00:27:47.470Z,1.10
2023-11-25T00:30:15.304Z,1.10
2023-11-25T00:32:42.379Z,0.80
2023-11-25T00:35:09.826Z,1.17
2023-11-25T00:37:36.794Z,0.70
2023-11-25T00:40:10.754Z,1.10
2023-11-25T00:42:41.186Z,0.70
2023-11-25T00:45:11.185Z,1.03
2023-11-25T00:47:41.067Z,1.03
2023-11-25T00:50:17.174Z,1.33
2023-11-25T00:52:43.948Z,1.23
2023-11-25T00:55:11.552Z,0.87
2023-11-25T00:57:38.669Z,0.90
2023-11-25T01:00:06.297Z,0.60
2023-11-25T01:02:33.182Z,1.80
2023-11-25T01:04:59.692Z,0.90
2023-11-25T01:07:26.071Z,0.93
2023-11-25T01:09:52.473Z,1.00
2023-11-25T01:12:18.884Z,1.80
2023-11-25T01:14:45.274Z,0.67
2023-11-25T01:17:11.985Z,2.00
2023-11-25T01:19:38.770Z,1.50
2023-11-25T01:22:05.747Z,1.60
2023-11-25T01:24:32.275Z,0.80
2023-11-25T01:26:59.251Z,1.60
2023-11-25T01:29:25.824Z,1.87
2023-11-25T01:31:52.222Z,1.20
2023-11-25T01:34:18.686Z,0.70
2023-11-25T01:36:45.117Z,1.03
2023-11-25T01:39:11.589Z,0.93
2023-11-25T01:41:37.937Z,0.80
2023-11-25T01:44:04.519Z,0.50
2023-11-25T01:46:39.943Z,1.00
2023-11-25T01:49:11.789Z,0.93
2023-11-25T01:51:43.818Z,0.87
2023-11-25T01:54:17.873Z,1.60
2023-11-25T01:56:47.382Z,0.80
2023-11-25T01:59:16.524Z,0.63
2023-11-25T02:01:45.031Z,0.80
2023-11-25T02:04:11.760Z,1.73
2023-11-25T02:06:38.383Z,0.97
2023-11-25T02:09:04.759Z,0.83
2023-11-25T02:11:31.074Z,0.90
2023-11-25T02:13:57.458Z,0.80
2023-11-25T02:16:24.376Z,0.70
2023-11-25T02:18:52.555Z,0.90
2023-11-25T02:21:19.316Z,0.60
2023-11-25T02:23:45.685Z,1.03
2023-11-25T02:26:12.119Z,0.80
2023-11-25T02:28:39.701Z,0.93
2023-11-25T02:31:06.922Z,1.07
2023-11-25T02:33:35.734Z,1.10
2023-11-25T02:36:02.379Z,0.60
2023-11-25T02:38:29.078Z,0.83
2023-11-25T02:40:55.793Z,0.70
2023-11-25T02:43:22.728Z,0.80
2023-11-25T02:45:49.272Z,0.70
2023-11-25T02:48:17.454Z,1.37
2023-11-25T02:50:44.910Z,0.90
2023-11-25T02:53:11.257Z,1.00
2023-11-25T02:55:37.597Z,0.80
2023-11-25T02:58:04.015Z,1.30
2023-11-25T03:00:30.510Z,1.20
2023-11-25T03:03:08.742Z,1.20
2023-11-25T03:05:36.242Z,1.10
2023-11-25T03:08:02.623Z,1.20
2023-11-25T03:10:29.022Z,1.50
2023-11-25T03:12:55.404Z,1.50
2023-11-25T03:15:21.760Z,1.27
2023-11-25T03:17:48.273Z,1.40
2023-11-25T03:20:14.735Z,1.40
2023-11-25T03:22:41.124Z,1.40
2023-11-25T03:25:08.071Z,1.70
2023-11-25T03:27:36.364Z,1.40
2023-11-25T03:30:09.191Z,1.40
2023-11-25T03:32:35.973Z,1.40
2023-11-25T03:35:02.460Z,1.40
2023-11-25T03:37:28.890Z,1.47
2023-11-25T03:39:55.224Z,1.27
2023-11-25T03:42:21.590Z,2.10
2023-11-25T03:44:48.450Z,1.80
2023-11-25T03:47:15.033Z,2.00
2023-11-25T03:49:41.627Z,1.70
2023-11-25T03:52:08.137Z,2.03
2023-11-25T03:54:34.613Z,1.77
2023-11-25T03:57:00.979Z,2.07
2023-11-25T03:59:27.417Z,1.90
2023-11-25T04:01:54.305Z,2.27
2023-11-25T04:04:20.896Z,2.33
2023-11-25T04:06:48.056Z,2.00
2023-11-25T04:09:14.822Z,2.10
2023-11-25T04:11:44.191Z,2.20
2023-11-25T04:14:10.786Z,1.93
2023-11-25T04:16:37.262Z,2.47
2023-11-25T04:19:04.684Z,1.80
2023-11-25T04:21:31.418Z,2.10
2023-11-25T04:23:57.853Z,2.30
2023-11-25T04:26:25.759Z,2.30
2023-11-25T04:28:52.394Z,2.37
2023-11-25T04:31:19.011Z,2.43
2023-11-25T04:33:45.767Z,2.20
2023-11-25T04:36:12.809Z,2.03
2023-11-25T04:38:40.723Z,2.50
2023-11-25T04:41:07.181Z,2.13
2023-11-25T04:43:33.588Z,2.23
2023-11-25T04:46:03.202Z,2.00
2023-11-25T04:48:29.780Z,2.33
2023-11-25T04:50:56.397Z,2.43
2023-11-25T04:53:22.960Z,2.57
2023-11-25T04:55:49.797Z,2.40
2023-11-25T04:58:16.381Z,2.30
2023-11-25T05:00:42.807Z,2.70
2023-11-25T05:03:10.500Z,2.30
2023-11-25T05:05:37.006Z,2.13
2023-11-25T05:08:05.613Z,2.30
2023-11-25T05:10:32.269Z,2.80
2023-11-25T05:12:58.870Z,2.67
2023-11-25T05:15:26.419Z,2.17
2023-11-25T05:17:56.019Z,2.27
2023-11-25T05:20:22.730Z,2.63
2023-11-25T05:22:49.330Z,3.37
2023-11-25T05:25:16.778Z,2.47
2023-11-25T05:27:44.021Z,3.10
2023-11-25T05:30:14.981Z,2.63
2023-11-25T05:32:43.887Z,2.40
2023-11-25T05:35:11.659Z,2.23
2023-11-25T05:37:38.145Z,2.30
2023-11-25T05:40:07.623Z,2.60
2023-11-25T05:42:38.005Z,2.17
2023-11-25T05:45:12.333Z,2.30
2023-11-25T05:47:38.724Z,2.17
2023-11-25T05:50:06.863Z,2.47
2023-11-25T05:52:33.726Z,2.10
2023-11-25T05:55:00.187Z,2.10
2023-11-25T05:57:26.675Z,1.87
2023-11-25T05:59:53.450Z,2.50
2023-11-25T06:02:19.884Z,2.10
2023-11-25T06:04:46.279Z,1.97
2023-11-25T06:07:12.819Z,2.13
2023-11-25T06:09:39.363Z,2.17
2023-11-25T06:12:06.193Z,2.10
2023-11-25T06:14:37.243Z,1.67
2023-11-25T06:17:05.267Z,2.17
2023-11-25T06:19:32.395Z,1.83
2023-11-25T06:21:59.549Z,1.70
2023-11-25T06:24:26.439Z,1.73
2023-11-25T06:26:54.511Z,1.80
2023-11-25T06:29:20.979Z,2.10
2023-11-25T06:31:47.721Z,2.00
2023-11-25T06:34:14.373Z,1.90
2023-11-25T06:36:41.115Z,1.90
2023-11-25T06:39:08.870Z,1.77
2023-11-25T06:41:35.387Z,1.67
2023-11-25T06:44:02.597Z,1.73
2023-11-25T06:46:29.268Z,1.57
2023-11-25T06:48:55.717Z,1.67
2023-11-25T06:51:22.261Z,1.90
2023-11-25T06:53:48.645Z,1.90
2023-11-25T06:56:17.874Z,1.83
2023-11-25T06:58:44.383Z,1.93
2023-11-25T07:01:17.536Z,1.80
2023-11-25T07:03:44.084Z,1.93
2023-11-25T07:06:10.595Z,1.90
2023-11-25T07:08:36.996Z,1.40
2023-11-25T07:11:06.210Z,1.40
2023-11-25T07:13:33.346Z,1.57
2023-11-25T07:16:01.973Z,1.30
2023-11-25T07:18:28.320Z,1.57
2023-11-25T07:20:56.602Z,1.40
2023-11-25T07:23:23.622Z,1.43
2023-11-25T07:25:50.193Z,1.83
2023-11-25T07:28:17.191Z,1.47
2023-11-25T07:30:44.411Z,1.70
2023-11-25T07:33:11.200Z,1.50
2023-11-25T07:35:38.164Z,1.30
2023-11-25T07:38:04.551Z,1.30
2023-11-25T07:40:30.959Z,1.10
2023-11-25T07:42:57.387Z,1.67
2023-11-25T07:45:23.741Z,1.27
2023-11-25T07:47:50.136Z,1.53
2023-11-25T07:50:17.196Z,1.60
2023-11-25T07:52:43.672Z,1.37
2023-11-25T07:55:10.596Z,1.53
2023-11-25T07:57:38.107Z,1.40
2023-11-25T08:00:07.721Z,1.47
2023-11-25T08:02:34.328Z,1.70
2023-11-25T08:05:01.244Z,1.10
2023-11-25T08:07:28.124Z,1.47
2023-11-25T08:09:54.546Z,1.63
2023-11-25T08:12:20.901Z,1.20
2023-11-25T08:14:48.295Z,1.43
2023-11-25T08:17:15.372Z,2.20
2023-11-25T08:19:41.828Z,1.63
2023-11-25T08:22:08.243Z,1.20
2023-11-25T08:24:35.626Z,1.13
2023-11-25T08:27:02.066Z,1.10
2023-11-25T08:29:28.440Z,1.20
2023-11-25T08:31:54.960Z,1.63
2023-11-25T08:34:21.449Z,1.07
2023-11-25T08:36:55.390Z,1.40
2023-11-25T08:39:23.390Z,1.20
2023-11-25T08:41:51.440Z,1.70
2023-11-25T08:44:17.828Z,1.37
2023-11-25T08:46:44.587Z,1.30
2023-11-25T08:49:14.225Z,1.63
2023-11-25T08:51:42.026Z,1.43
2023-11-25T08:54:09.307Z,1.60
2023-11-25T08:56:37.253Z,1.70
2023-11-25T08:59:06.807Z,1.27
2023-11-25T09:01:40.538Z,1.07
2023-11-25T09:04:10.969Z,1.53
2023-11-25T09:06:38.272Z,1.10
2023-11-25T09:09:10.521Z,1.63
2023-11-25T09:11:37.810Z,1.47
2023-11-25T09:14:05.578Z,1.40
2023-11-25T09:16:32.250Z,1.43
2023-11-25T09:19:00.618Z,1.10
2023-11-25T09:21:27.546Z,1.47
2023-11-25T09:23:56.089Z,1.20
2023-11-25T09:26:25.520Z,1.30
2023-11-25T09:28:53.915Z,1.50
2023-11-25T09:31:20.445Z,1.23
2023-11-25T09:33:48.094Z,1.67
2023-11-25T09:36:14.705Z,1.10
2023-11-25T09:38:41.070Z,1.50
2023-11-25T09:41:07.698Z,1.37
2023-11-25T09:43:35.544Z,1.40
2023-11-25T09:46:02.720Z,1.20
2023-11-25T09:48:29.289Z,1.53
2023-11-25T09:50:55.679Z,1.27
2023-11-25T09:53:28.390Z,1.60
2023-11-25T09:56:06.298Z,1.60
2023-11-25T09:58:34.725Z,1.60
2023-11-25T10:01:01.459Z,1.03
2023-11-25T10:03:34.260Z,1.13
2023-11-25T10:06:02.137Z,0.80
2023-11-25T10:08:28.484Z,0.83
2023-11-25T10:11:02.635Z,1.20
2023-11-25T10:13:35.015Z,1.13
2023-11-25T10:16:05.314Z,0.80
2023-11-25T10:18:31.897Z,1.07
2023-11-25T10:20:59.338Z,1.33
2023-11-25T10:23:27.104Z,1.30
2023-11-25T10:25:54.328Z,1.20
2023-11-25T10:28:27.065Z,1.20
2023-11-25T10:30:57.705Z,0.90
2023-11-25T10:33:25.318Z,1.10
2023-11-25T10:35:53.437Z,1.60
2023-11-25T10:38:23.105Z,1.27
2023-11-25T10:40:50.206Z,1.27
2023-11-25T10:43:17.344Z,1.33
2023-11-25T10:45:44.111Z,1.60
2023-11-25T10:48:12.626Z,1.27
2023-11-25T10:50:43.692Z,1.13
2023-11-25T10:53:17.021Z,1.00
2023-11-25T10:55:44.790Z,1.10
2023-11-25T10:58:12.562Z,1.30
2023-11-25T11:00:39.049Z,1.33
2023-11-25T11:03:09.971Z,1.27
2023-11-25T11:05:50.345Z,1.50
2023-11-25T11:08:20.330Z,1.47
2023-11-25T11:11:00.268Z,1.30
2023-11-25T11:13:36.548Z,1.13
2023-11-25T11:16:10.265Z,1.30
2023-11-25T11:18:40.353Z,1.27
2023-11-25T11:21:07.799Z,1.30
2023-11-25T11:23:38.348Z,1.10
2023-11-25T11:26:35.922Z,1.30
2023-11-25T11:29:31.358Z,1.23
2023-11-25T11:32:03.180Z,1.10
2023-11-25T11:36:57.567Z,1.73
2023-11-25T11:39:43.151Z,1.20
2023-11-25T11:42:28.452Z,1.80
2023-11-25T11:45:18.361Z,1.13
2023-11-25T11:47:47.303Z,1.27
2023-11-25T11:50:28.020Z,0.83
2023-11-25T11:53:00.384Z,1.03
2023-11-25T11:55:37.291Z,1.10
2023-11-25T11:58:10.980Z,0.80
2023-11-25T12:00:47.918Z,1.10
2023-11-25T12:03:19.179Z,1.00
2023-11-25T12:05:46.016Z,1.20
2023-11-25T12:08:12.949Z,1.20
2023-11-25T12:10:40.335Z,1.30
2023-11-25T12:13:06.831Z,1.30
2023-11-25T12:15:33.220Z,1.30
2023-11-25T12:18:01.359Z,1.20
2023-11-25T12:20:28.713Z,0.90
2023-11-25T12:22:57.083Z,1.20
2023-11-25T12:25:27.585Z,0.77
2023-11-25T12:28:06.253Z,0.87
2023-11-25T12:30:32.620Z,1.00
2023-11-25T12:32:59.081Z,1.00
2023-11-25T12:35:26.003Z,1.33
2023-11-25T12:38:04.853Z,1.17
2023-11-25T12:40:38.615Z,1.00
2023-11-25T12:43:09.246Z,1.00
2023-11-25T12:45:44.466Z,1.10
2023-11-25T12:48:13.952Z,1.17
2023-11-25T12:51:06.296Z,1.13
2023-11-25T12:53:32.944Z,1.20
2023-11-25T12:56:00.685Z,1.40
2023-11-25T12:58:27.489Z,1.00
2023-11-25T13:00:58.874Z,1.00
2023-11-25T13:03:27.447Z,0.87
2023-11-25T13:06:07.015Z,1.30
2023-11-25T13:08:37.864Z,1.13
2023-11-25T13:11:05.994Z,1.00
2023-11-25T13:13:33.610Z,1.17
2023-11-25T13:16:01.187Z,1.37
2023-11-25T13:18:28.440Z,1.30
2023-11-25T13:20:56.475Z,0.80
2023-11-25T13:23:23.043Z,1.37
2023-11-25T13:25:50.936Z,1.00
2023-11-25T13:28:17.375Z,1.10
2023-11-25T13:30:43.749Z,1.00
2023-11-25T13:33:13.204Z,0.77
2023-11-25T13:35:39.601Z,1.10
2023-11-25T13:38:09.769Z,1.20
2023-11-25T13:40:38.795Z,1.00
2023-11-25T13:43:16.878Z,1.13
2023-11-25T13:45:43.993Z,1.10
2023-11-25T13:48:13.058Z,1.27
2023-11-25T13:50:39.505Z,1.10
2023-11-25T13:53:08.528Z,0.90
2023-11-25T13:55:44.354Z,1.07
2023-11-25T13:58:11.226Z,0.97
2023-11-25T14:00:38.300Z,1.40
2023-11-25T14:03:10.834Z,1.20
2023-11-25T14:05:39.211Z,0.93
2023-11-25T14:08:09.323Z,1.20
2023-11-25T14:10:38.485Z,0.87
2023-11-25T14:13:09.755Z,1.00
2023-11-25T14:15:36.455Z,1.40
2023-11-25T14:18:03.013Z,1.10
2023-11-25T14:20:29.974Z,1.10
2023-11-25T14:22:57.448Z,1.10
2023-11-25T14:25:24.930Z,1.03
2023-11-25T14:27:51.441Z,1.00
2023-11-25T14:30:23.898Z,0.90
2023-11-25T14:32:51.329Z,1.10
2023-11-25T14:35:18.114Z,1.07
2023-11-25T14:37:45.415Z,0.87
2023-11-25T14:40:15.580Z,1.03
2023-11-25T14:42:42.847Z,1.10
2023-11-25T14:45:09.570Z,0.97
2023-11-25T14:47:36.035Z,1.20
2023-11-25T14:50:03.562Z,0.70
2023-11-25T14:52:32.941Z,0.90
2023-11-25T14:54:59.934Z,0.80
2023-11-25T14:57:28.535Z,0.73
2023-11-25T14:59:55.460Z,0.53
2023-11-25T15:02:22.204Z,0.93
2023-11-25T15:04:49.068Z,0.80
2023-11-25T15:07:15.878Z,0.80
2023-11-25T15:09:43.914Z,0.80
2023-11-25T15:12:11.333Z,0.80
2023-11-25T15:14:38.642Z,0.83
2023-11-25T15:17:07.438Z,1.10
2023-11-25T15:19:36.475Z,1.00
2023-11-25T15:22:02.975Z,0.70
2023-11-25T15:24:29.387Z,0.90
2023-11-25T15:26:56.081Z,1.17
2023-11-25T15:29:23.491Z,1.00
2023-11-25T15:31:52.203Z,0.80
2023-11-25T15:34:18.891Z,0.90
2023-11-25T15:36:45.678Z,0.97
2023-11-25T15:39:17.706Z,1.17
2023-11-25T15:41:47.198Z,1.00
2023-11-25T15:44:13.937Z,0.93
2023-11-25T15:46:41.371Z,1.00
2023-11-25T15:49:09.201Z,1.20
2023-11-25T15:51:36.516Z,1.00
2023-11-25T15:54:02.912Z,1.00
2023-11-25T15:56:29.344Z,1.20
2023-11-25T15:59:00.012Z,1.27
2023-11-25T16:01:26.919Z,1.40
2023-11-25T16:03:53.691Z,1.23
2023-11-25T16:06:20.178Z,1.40
2023-11-25T16:08:46.571Z,1.03
2023-11-25T16:11:13.501Z,1.30
2023-11-25T16:13:39.888Z,1.20
2023-11-25T16:16:06.737Z,1.23
2023-11-25T16:18:34.218Z,0.90
2023-11-25T16:21:01.425Z,1.43
2023-11-25T16:23:28.938Z,1.27
2023-11-25T16:25:55.413Z,1.33
2023-11-25T16:28:22.280Z,1.37
2023-11-25T16:30:48.973Z,1.50
2023-11-25T16:33:15.606Z,1.47
2023-11-25T16:35:42.873Z,1.60
2023-11-25T16:38:09.528Z,1.37
2023-11-25T16:40:36.064Z,1.63
2023-11-25T16:43:04.304Z,1.50
2023-11-25T16:45:33.179Z,1.80
2023-11-25T16:48:01.335Z,1.70
2023-11-25T16:50:29.274Z,1.50
2023-11-25T16:52:55.934Z,1.57
2023-11-25T16:55:22.371Z,1.77
2023-11-25T16:57:48.737Z,1.43
2023-11-25T17:00:17.430Z,1.43
2023-11-25T17:02:44.956Z,1.43
2023-11-25T17:05:11.711Z,1.27
2023-11-25T17:07:38.357Z,1.20
2023-11-25T17:10:05.510Z,1.23
2023-11-25T17:12:32.540Z,1.40
2023-11-25T17:14:59.392Z,2.03
2023-11-25T17:17:26.663Z,1.70
2023-11-25T17:19:53.501Z,2.00
2023-11-25T17:22:19.853Z,1.63
2023-11-25T17:24:46.377Z,1.63
2023-11-25T17:27:12.757Z,1.77
2023-11-25T17:29:39.309Z,1.30
2023-11-25T17:32:07.147Z,1.50
2023-11-25T17:34:34.227Z,1.50
2023-11-25T17:37:01.518Z,0.93
2023-11-25T17:39:28.376Z,1.20
2023-11-25T17:41:54.810Z,1.30
2023-11-25T17:44:22.724Z,1.90
2023-11-25T17:46:50.031Z,1.50
2023-11-25T17:49:17.369Z,1.07
2023-11-25T17:51:43.751Z,1.07
2023-11-25T17:54:11.952Z,1.63
2023-11-25T17:56:38.468Z,5.10
2023-11-25T17:59:04.985Z,2.87
2023-11-25T18:01:31.527Z,3.90
2023-11-25T18:03:58.145Z,3.00
2023-11-25T18:06:25.195Z,1.33
2023-11-25T18:08:51.559Z,1.17
2023-11-25T18:11:17.939Z,1.10
2023-11-25T18:13:44.833Z,1.30
2023-11-25T18:16:11.536Z,1.43
2023-11-25T18:18:39.542Z,2.43
2023-11-25T18:21:07.120Z,1.50
2023-11-25T18:23:33.819Z,1.30
2023-11-25T18:26:00.375Z,1.33
2023-11-25T18:28:26.739Z,1.30
2023-11-25T18:30:53.180Z,0.93
2023-11-25T18:33:19.680Z,1.53
2023-11-25T18:35:46.069Z,2.17
2023-11-25T18:38:12.504Z,3.43
2023-11-25T18:40:38.990Z,2.67
2023-11-25T18:43:05.456Z,1.40
2023-11-25T18:45:31.825Z,1.47
2023-11-25T18:47:58.217Z,1.40
2023-11-25T18:50:28.430Z,1.67
2023-11-25T18:52:55.485Z,1.60
2023-11-25T18:55:21.862Z,1.40
2023-11-25T18:57:48.249Z,1.40
2023-11-25T19:00:14.702Z,1.17
2023-11-25T19:02:41.719Z,1.40
2023-11-25T19:05:09.037Z,1.20
2023-11-25T19:07:36.487Z,1.40
2023-11-25T19:10:03.680Z,1.00
2023-11-25T19:12:30.153Z,0.80
2023-11-25T19:14:56.670Z,0.83
2023-11-25T19:17:23.349Z,1.97
2023-11-25T19:19:49.781Z,0.80
2023-11-25T19:22:16.142Z,0.83
2023-11-25T19:24:42.543Z,0.70
2023-11-25T19:27:09.323Z,0.80
2023-11-25T19:29:42.192Z,0.47
2023-11-25T19:32:10.083Z,0.57
2023-11-25T19:34:36.744Z,0.30
2023-11-25T19:37:03.507Z,0.40
2023-11-25T19:39:30.157Z,0.60
2023-11-25T19:41:56.659Z,0.50
2023-11-25T19:44:23.073Z,0.63
2023-11-25T19:46:54.641Z,0.50
2023-11-25T19:49:21.575Z,0.50
2023-11-25T19:51:48.242Z,0.40
2023-11-25T19:54:14.637Z,0.50
2023-11-25T19:56:41.032Z,0.43
2023-11-25T19:59:07.602Z,0.50
2023-11-25T20:01:35.338Z,0.50
2023-11-25T20:04:01.815Z,0.50
2023-11-25T20:06:28.221Z,0.50
2023-11-25T20:08:54.606Z,0.60
2023-11-25T20:11:20.966Z,0.73
2023-11-25T20:13:47.403Z,0.80
2023-11-25T20:16:13.788Z,0.60
2023-11-25T20:18:40.992Z,0.60
2023-11-25T20:21:07.950Z,0.60
2023-11-25T20:23:34.376Z,0.60
2023-11-25T20:26:00.767Z,0.50
2023-11-25T20:28:27.140Z,0.67
2023-11-25T20:30:54.232Z,0.60
2023-11-25T20:33:20.694Z,0.50
2023-11-25T20:35:49.195Z,0.40
2023-11-25T20:38:16.460Z,0.50
2023-11-25T20:40:43.008Z,0.70
2023-11-25T20:43:09.431Z,0.70
2023-11-25T20:45:38.387Z,0.60
2023-11-25T20:48:05.402Z,0.90
2023-11-25T20:50:34.357Z,0.77
2023-11-25T20:53:03.261Z,0.80
2023-11-25T20:55:29.690Z,1.00
2023-11-25T20:57:56.518Z,1.20
2023-11-25T21:00:23.134Z,1.20
2023-11-25T21:02:49.838Z,0.80
2023-11-25T21:05:18.994Z,0.83
2023-11-25T21:07:45.496Z,0.77
2023-11-25T21:10:11.991Z,0.73
2023-11-25T21:12:38.351Z,1.30
2023-11-25T21:15:06.162Z,0.93
2023-11-25T21:17:32.696Z,1.33
2023-11-25T21:19:59.174Z,0.93
2023-11-25T21:22:29.317Z,1.10
2023-11-25T21:24:55.653Z,0.83
2023-11-25T21:27:22.208Z,1.70
2023-11-25T21:29:48.540Z,1.30
2023-11-25T21:32:14.926Z,0.70
2023-11-25T21:34:41.463Z,1.10
2023-11-25T21:37:07.901Z,1.03
2023-11-25T21:39:34.565Z,1.00
2023-11-25T21:42:00.975Z,0.90
2023-11-25T21:44:27.447Z,1.90
2023-11-25T21:46:53.972Z,1.83
2023-11-25T21:49:20.394Z,0.93
2023-11-25T21:51:46.758Z,1.43
2023-11-25T21:54:14.216Z,1.67
2023-11-25T21:56:40.621Z,1.83
2023-11-25T21:59:07.037Z,0.93
2023-11-25T22:01:33.654Z,1.50
2023-11-25T22:04:02.134Z,1.63
2023-11-25T22:06:28.800Z,1.27
2023-11-25T22:08:56.616Z,1.03
2023-11-25T22:11:24.367Z,1.00
2023-11-25T22:13:51.849Z,1.10
2023-11-25T22:16:18.959Z,1.27
2023-11-25T22:18:45.735Z,0.63
2023-11-25T22:21:12.147Z,0.80
2023-11-25T22:23:40.744Z,1.00
2023-11-25T22:26:16.590Z,1.00
2023-11-25T22:28:43.175Z,1.03
2023-11-25T22:31:10.221Z,2.10
2023-11-25T22:33:36.577Z,1.03
2023-11-25T22:36:02.993Z,0.90
2023-11-25T22:38:29.419Z,1.80
2023-11-25T22:40:56.828Z,1.30
2023-11-25T22:43:23.424Z,0.97
2023-11-25T22:45:49.811Z,1.13
2023-11-25T22:48:16.174Z,0.73
2023-11-25T22:50:42.633Z,0.80
2023-11-25T22:53:09.189Z,1.70
2023-11-25T22:55:35.690Z,1.93
2023-11-25T22:58:02.030Z,2.10
2023-11-25T23:00:29.368Z,2.10
2023-11-25T23:02:56.361Z,2.00
2023-11-25T23:05:23.338Z,0.90
2023-11-25T23:07:49.881Z,0.83
2023-11-25T23:10:16.495Z,0.70
2023-11-25T23:12:42.875Z,0.97
2023-11-25T23:15:09.502Z,1.13
2023-11-25T23:17:36.238Z,1.50
2023-11-25T23:20:03.535Z,1.50
2023-11-25T23:22:29.948Z,0.83
2023-11-25T23:24:56.282Z,1.13
2023-11-25T23:27:22.612Z,1.63
2023-11-25T23:29:48.950Z,0.60
2023-11-25T23:32:15.861Z,1.30
2023-11-25T23:34:42.640Z,0.83
2023-11-25T23:37:13.152Z,0.90
2023-11-25T23:39:39.852Z,0.70
2023-11-25T23:42:10.067Z,0.93
2023-11-25T23:44:36.600Z,1.10
2023-11-25T23:47:03.035Z,1.20
2023-11-25T23:49:29.993Z,0.80
2023-11-25T23:51:56.426Z,0.90
2023-11-25T23:54:22.838Z,1.33
2023-11-25T23:56:49.212Z,1.23
2023-11-25T23:59:16.548Z,1.20
